createdAt,value
2023-03-29T00:00:00.420Z,8.72
2023-03-29T00:01:02.144Z,8.72
2023-03-29T00:02:03.963Z,8.83
2023-03-29T00:03:05.895Z,8.95
2023-03-29T00:04:07.790Z,9.03
2023-03-29T00:05:09.585Z,9.03
2023-03-29T00:06:15.128Z,8.91
2023-03-29T00:07:16.655Z,8.97
2023-03-29T00:08:21.987Z,9.08
2023-03-29T00:09:23.529Z,9.18
2023-03-29T00:10:25.021Z,9.22
2023-03-29T00:11:27.223Z,9.27
2023-03-29T00:12:28.851Z,9.30
2023-03-29T00:13:30.398Z,9.32
2023-03-29T00:14:32.047Z,9.23
2023-03-29T00:15:33.534Z,8.90
2023-03-29T00:16:35.203Z,8.81
2023-03-29T00:17:36.962Z,8.89
2023-03-29T00:18:39.651Z,8.88
2023-03-29T00:19:44.550Z,8.85
2023-03-29T00:20:46.148Z,8.92
2023-03-29T00:21:47.656Z,9.03
2023-03-29T00:22:49.309Z,9.04
2023-03-29T00:23:51.064Z,8.99
2023-03-29T00:24:54.563Z,8.92
2023-03-29T00:25:56.157Z,9.06
2023-03-29T00:26:57.664Z,8.96
2023-03-29T00:27:59.167Z,8.85
2023-03-29T00:29:00.684Z,8.79
2023-03-29T00:30:04.601Z,8.52
2023-03-29T00:31:13.497Z,8.60
2023-03-29T00:32:15.477Z,8.83
2023-03-29T00:33:19.031Z,8.90
2023-03-29T00:34:21.530Z,8.98
2023-03-29T00:35:23.156Z,9.03
2023-03-29T00:36:24.722Z,8.88
2023-03-29T00:37:26.896Z,8.73
2023-03-29T00:38:28.474Z,8.46
2023-03-29T00:39:30.721Z,8.53
2023-03-29T00:40:33.056Z,8.72
2023-03-29T00:41:34.809Z,8.76
2023-03-29T00:42:36.611Z,8.54
2023-03-29T00:43:58.139Z,8.87
2023-03-29T00:45:11.772Z,8.89
2023-03-29T00:46:13.466Z,8.95
2023-03-29T00:47:15.664Z,8.95
2023-03-29T00:48:18.655Z,8.97
2023-03-29T00:49:20.196Z,9.34
2023-03-29T00:50:29.606Z,9.16
2023-03-29T00:51:32.940Z,9.12
2023-03-29T00:52:34.664Z,9.08
2023-03-29T00:53:38.534Z,9.01
2023-03-29T00:54:41.155Z,8.94
2023-03-29T00:56:02.471Z,8.89
2023-03-29T00:57:04.384Z,9.00
2023-03-29T00:58:07.484Z,8.98
2023-03-29T00:59:10.123Z,9.32
2023-03-29T01:00:12.207Z,9.13
2023-03-29T01:01:19.759Z,9.03
2023-03-29T01:02:22.139Z,9.02
2023-03-29T01:03:27.519Z,8.79
2023-03-29T01:04:31.485Z,8.89
2023-03-29T01:05:41.671Z,8.89
2023-03-29T01:06:43.565Z,8.77
2023-03-29T01:07:48.180Z,8.62
2023-03-29T01:08:52.375Z,8.70
2023-03-29T01:10:04.580Z,8.76
2023-03-29T01:11:12.669Z,8.81
2023-03-29T01:12:17.186Z,8.87
2023-03-29T01:13:26.213Z,8.91
2023-03-29T01:15:21.151Z,8.99
2023-03-29T01:16:23.107Z,8.99
2023-03-29T01:17:26.011Z,8.95
2023-03-29T01:18:27.552Z,8.99
2023-03-29T01:19:33.910Z,8.97
2023-03-29T01:20:53.868Z,8.92
2023-03-29T01:21:57.552Z,8.90
2023-03-29T01:23:21.284Z,8.79
2023-03-29T01:24:44.824Z,8.94
2023-03-29T01:26:19.629Z,8.81
2023-03-29T01:27:48.665Z,8.72
2023-03-29T01:28:53.341Z,8.77
2023-03-29T01:29:57.768Z,8.77
2023-03-29T01:31:08.546Z,8.58
2023-03-29T01:32:16.392Z,8.58
2023-03-29T01:33:29.258Z,8.72
2023-03-29T01:34:35.575Z,8.63
2023-03-29T01:35:45.227Z,8.77
2023-03-29T01:36:55.227Z,8.60
2023-03-29T01:38:00.123Z,8.60
2023-03-29T01:39:03.472Z,8.50
2023-03-29T01:40:06.338Z,8.62
2023-03-29T01:41:07.858Z,8.64
2023-03-29T01:42:32.317Z,8.59
2023-03-29T01:43:59.099Z,8.59
2023-03-29T01:45:33.363Z,8.82
2023-03-29T01:46:45.841Z,8.81
2023-03-29T01:47:54.969Z,8.58
2023-03-29T01:48:56.998Z,8.91
2023-03-29T01:50:16.386Z,8.74
2023-03-29T01:51:31.792Z,8.69
2023-03-29T01:52:36.510Z,8.78
2023-03-29T01:53:49.988Z,8.52
2023-03-29T01:54:58.104Z,8.60
2023-03-29T01:56:02.448Z,8.69
2023-03-29T01:57:06.206Z,8.77
2023-03-29T01:58:08.405Z,8.77
2023-03-29T01:59:12.333Z,8.74
2023-03-29T02:00:19.156Z,8.82
2023-03-29T02:01:23.159Z,8.47
2023-03-29T02:02:25.266Z,8.58
2023-03-29T02:03:28.225Z,8.61
2023-03-29T02:04:34.726Z,9.03
2023-03-29T02:05:37.512Z,8.86
2023-03-29T02:06:39.684Z,8.72
2023-03-29T02:07:41.992Z,8.66
2023-03-29T02:08:43.526Z,8.64
2023-03-29T02:09:45.247Z,8.71
2023-03-29T02:10:46.720Z,8.63
2023-03-29T02:11:48.436Z,8.70
2023-03-29T02:12:50.736Z,8.71
2023-03-29T02:13:52.246Z,8.72
2023-03-29T02:14:53.939Z,8.74
2023-03-29T02:15:55.488Z,8.82
2023-03-29T02:16:57.031Z,8.84
2023-03-29T02:17:58.641Z,8.75
2023-03-29T02:19:00.346Z,8.81
2023-03-29T02:20:13.869Z,8.81
2023-03-29T02:21:56.519Z,8.94
2023-03-29T02:23:15.972Z,9.00
2023-03-29T02:24:18.300Z,8.77
2023-03-29T02:25:20.273Z,8.73
2023-03-29T02:26:22.436Z,8.66
2023-03-29T02:27:23.917Z,8.66
2023-03-29T02:28:25.449Z,8.68
2023-03-29T02:29:27.324Z,8.69
2023-03-29T02:30:32.226Z,8.66
2023-03-29T02:31:37.929Z,8.75
2023-03-29T02:33:19.194Z,8.87
2023-03-29T02:34:26.667Z,8.87
2023-03-29T02:35:34.871Z,8.73
2023-03-29T02:36:41.941Z,8.58
2023-03-29T02:37:44.256Z,8.53
2023-03-29T02:38:46.345Z,8.68
2023-03-29T02:39:48.513Z,8.59
2023-03-29T02:40:50.068Z,8.58
2023-03-29T02:41:52.051Z,8.61
2023-03-29T02:42:54.696Z,8.67
2023-03-29T02:43:56.725Z,8.29
2023-03-29T02:44:58.239Z,8.55
2023-03-29T02:45:59.768Z,8.54
2023-03-29T02:47:04.369Z,8.53
2023-03-29T02:48:07.464Z,8.69
2023-03-29T02:49:10.210Z,8.71
2023-03-29T02:50:12.013Z,8.63
2023-03-29T02:51:21.200Z,8.66
2023-03-29T02:52:23.798Z,9.00
2023-03-29T02:53:34.691Z,8.80
2023-03-29T02:54:37.876Z,8.85
2023-03-29T02:55:39.782Z,8.86
2023-03-29T02:56:46.422Z,8.80
2023-03-29T02:57:47.954Z,8.86
2023-03-29T02:58:49.453Z,8.91
2023-03-29T02:59:51.033Z,8.85
2023-03-29T03:00:52.867Z,8.90
2023-03-29T03:01:54.401Z,8.98
2023-03-29T03:02:56.024Z,9.04
2023-03-29T03:03:57.760Z,9.04
2023-03-29T03:04:59.309Z,8.69
2023-03-29T03:06:01.906Z,8.81
2023-03-29T03:07:05.308Z,8.94
2023-03-29T03:08:07.459Z,8.94
2023-03-29T03:09:09.957Z,8.93
2023-03-29T03:10:11.500Z,8.89
2023-03-29T03:11:13.491Z,8.80
2023-03-29T03:12:15.063Z,8.86
2023-03-29T03:13:16.570Z,8.74
2023-03-29T03:14:19.147Z,8.72
2023-03-29T03:15:21.078Z,8.78
2023-03-29T03:16:24.185Z,8.76
2023-03-29T03:17:25.793Z,8.77
2023-03-29T03:18:27.685Z,8.79
2023-03-29T03:19:29.641Z,8.78
2023-03-29T03:20:31.285Z,8.76
2023-03-29T03:21:33.880Z,8.69
2023-03-29T03:22:35.635Z,8.75
2023-03-29T03:23:37.132Z,8.81
2023-03-29T03:24:38.665Z,8.87
2023-03-29T03:25:40.149Z,8.92
2023-03-29T03:26:41.650Z,8.88
2023-03-29T03:27:43.386Z,8.78
2023-03-29T03:28:45.806Z,8.77
2023-03-29T03:29:48.606Z,8.78
2023-03-29T03:30:50.109Z,8.79
2023-03-29T03:31:53.965Z,8.80
2023-03-29T03:32:55.878Z,8.80
2023-03-29T03:33:57.453Z,8.77
2023-03-29T03:34:58.987Z,8.78
2023-03-29T03:36:06.073Z,8.82
2023-03-29T03:37:07.620Z,8.88
2023-03-29T03:38:09.107Z,8.75
2023-03-29T03:39:11.793Z,8.83
2023-03-29T03:40:13.875Z,8.94
2023-03-29T03:41:15.983Z,9.02
2023-03-29T03:42:17.477Z,9.08
2023-03-29T03:43:18.969Z,9.10
2023-03-29T03:44:20.518Z,8.98
2023-03-29T03:45:22.001Z,8.93
2023-03-29T03:46:23.557Z,8.83
2023-03-29T03:47:25.216Z,8.76
2023-03-29T03:48:27.127Z,8.86
2023-03-29T03:49:29.076Z,8.92
2023-03-29T03:50:30.604Z,8.99
2023-03-29T03:51:32.177Z,9.01
2023-03-29T03:52:33.667Z,9.00
2023-03-29T03:53:35.211Z,8.97
2023-03-29T03:54:36.697Z,8.94
2023-03-29T03:55:39.570Z,8.97
2023-03-29T03:56:41.094Z,8.93
2023-03-29T03:57:42.761Z,8.87
2023-03-29T03:58:44.257Z,8.77
2023-03-29T03:59:45.760Z,8.88
2023-03-29T04:00:50.449Z,8.91
2023-03-29T04:01:52.784Z,8.86
2023-03-29T04:02:54.482Z,8.73
2023-03-29T04:03:56.308Z,8.68
2023-03-29T04:04:57.951Z,8.60
2023-03-29T04:06:02.808Z,8.62
2023-03-29T04:07:05.092Z,8.66
2023-03-29T04:08:06.834Z,8.73
2023-03-29T04:09:09.251Z,8.75
2023-03-29T04:10:11.234Z,8.75
2023-03-29T04:11:12.739Z,8.78
2023-03-29T04:12:14.546Z,8.78
2023-03-29T04:13:16.111Z,8.61
2023-03-29T04:14:17.644Z,8.59
2023-03-29T04:15:20.280Z,8.74
2023-03-29T04:16:21.890Z,8.72
2023-03-29T04:17:23.894Z,8.70
2023-03-29T04:18:25.554Z,8.71
2023-03-29T04:19:27.321Z,8.71
2023-03-29T04:20:28.918Z,8.75
2023-03-29T04:21:30.725Z,8.80
2023-03-29T04:22:32.233Z,8.73
2023-03-29T04:23:33.739Z,8.77
2023-03-29T04:24:35.238Z,8.78
2023-03-29T04:25:36.888Z,8.80
2023-03-29T04:26:38.368Z,8.77
2023-03-29T04:27:39.971Z,8.81
2023-03-29T04:28:41.796Z,8.76
2023-03-29T04:29:44.911Z,8.62
2023-03-29T04:30:47.245Z,8.69
2023-03-29T04:31:49.295Z,8.76
2023-03-29T04:32:51.105Z,8.78
2023-03-29T04:33:52.708Z,8.75
2023-03-29T04:34:54.193Z,8.61
2023-03-29T04:35:55.788Z,8.73
2023-03-29T04:36:59.148Z,8.74
2023-03-29T04:38:00.643Z,8.66
2023-03-29T04:39:02.139Z,8.61
2023-03-29T04:40:08.883Z,8.65
2023-03-29T04:41:10.425Z,8.70
2023-03-29T04:42:12.427Z,8.73
2023-03-29T04:43:14.440Z,8.71
2023-03-29T04:44:16.170Z,8.66
2023-03-29T04:45:18.156Z,8.74
2023-03-29T04:46:19.878Z,8.62
2023-03-29T04:47:21.470Z,8.69
2023-03-29T04:48:22.976Z,8.75
2023-03-29T04:49:26.132Z,8.66
2023-03-29T04:50:28.045Z,8.24
2023-03-29T04:51:30.015Z,8.41
2023-03-29T04:52:33.303Z,8.57
2023-03-29T04:53:34.934Z,8.70
2023-03-29T04:54:37.339Z,8.59
2023-03-29T04:55:38.853Z,8.65
2023-03-29T04:56:40.871Z,8.51
2023-03-29T04:57:44.637Z,8.59
2023-03-29T04:58:46.170Z,8.60
2023-03-29T04:59:47.668Z,8.68
2023-03-29T05:00:49.569Z,8.79
2023-03-29T05:01:51.480Z,8.55
2023-03-29T05:02:53.601Z,8.56
2023-03-29T05:03:55.241Z,8.52
2023-03-29T05:04:56.787Z,8.46
2023-03-29T05:06:08.754Z,8.54
2023-03-29T05:07:10.339Z,8.70
2023-03-29T05:08:12.281Z,8.66
2023-03-29T05:09:13.760Z,8.61
2023-03-29T05:10:15.304Z,8.62
2023-03-29T05:11:17.576Z,8.64
2023-03-29T05:12:19.154Z,8.61
2023-03-29T05:13:20.771Z,8.56
2023-03-29T05:14:23.484Z,8.65
2023-03-29T05:15:25.314Z,8.46
2023-03-29T05:16:30.192Z,8.39
2023-03-29T05:17:31.963Z,8.61
2023-03-29T05:18:33.496Z,8.57
2023-03-29T05:19:36.483Z,8.46
2023-03-29T05:20:38.416Z,8.82
2023-03-29T05:21:39.966Z,8.06
2023-03-29T05:22:41.489Z,7.80
2023-03-29T05:23:43.079Z,7.97
2023-03-29T05:24:44.581Z,8.38
2023-03-29T05:25:48.857Z,8.33
2023-03-29T05:26:53.131Z,8.40
2023-03-29T05:27:54.641Z,8.39
2023-03-29T05:28:56.987Z,8.49
2023-03-29T05:29:58.494Z,8.30
2023-03-29T05:31:04.553Z,8.29
2023-03-29T05:32:07.096Z,8.29
2023-03-29T05:33:08.980Z,8.37
2023-03-29T05:34:10.929Z,8.30
2023-03-29T05:35:12.405Z,8.33
2023-03-29T05:36:15.114Z,8.42
2023-03-29T05:37:17.137Z,8.46
2023-03-29T05:38:33.425Z,8.66
2023-03-29T05:39:37.555Z,8.67
2023-03-29T05:40:39.301Z,8.68
2023-03-29T05:41:41.651Z,8.64
2023-03-29T05:42:43.447Z,8.63
2023-03-29T05:43:45.065Z,8.49
2023-03-29T05:44:46.548Z,8.68
2023-03-29T05:45:48.948Z,7.95
2023-03-29T05:46:50.708Z,8.29
2023-03-29T05:47:52.267Z,8.53
2023-03-29T05:48:53.776Z,8.72
2023-03-29T05:49:55.461Z,8.75
2023-03-29T05:50:58.121Z,8.72
2023-03-29T05:52:00.160Z,8.76
2023-03-29T05:53:01.649Z,8.62
2023-03-29T05:54:03.148Z,8.44
2023-03-29T05:55:05.000Z,8.60
2023-03-29T05:56:09.041Z,8.66
2023-03-29T05:57:10.525Z,8.69
2023-03-29T05:58:12.976Z,8.54
2023-03-29T05:59:14.810Z,8.55
2023-03-29T06:00:21.810Z,8.61
2023-03-29T06:01:24.544Z,8.39
2023-03-29T06:02:26.401Z,8.61
2023-03-29T06:03:28.338Z,8.65
2023-03-29T06:04:30.773Z,8.48
2023-03-29T06:05:32.406Z,8.61
2023-03-29T06:06:34.013Z,8.50
2023-03-29T06:07:36.081Z,8.51
2023-03-29T06:08:37.650Z,8.07
2023-03-29T06:09:39.775Z,8.24
2023-03-29T06:10:41.491Z,7.80
2023-03-29T06:11:43.014Z,7.88
2023-03-29T06:12:45.051Z,8.04
2023-03-29T06:13:46.654Z,8.29
2023-03-29T06:14:48.234Z,8.07
2023-03-29T06:15:50.062Z,7.85
2023-03-29T06:16:51.717Z,8.26
2023-03-29T06:17:53.274Z,8.08
2023-03-29T06:18:55.135Z,7.79
2023-03-29T06:19:57.841Z,7.86
2023-03-29T06:20:59.731Z,8.08
2023-03-29T06:22:01.331Z,8.25
2023-03-29T06:23:02.830Z,8.48
2023-03-29T06:24:04.644Z,8.66
2023-03-29T06:25:07.187Z,8.68
2023-03-29T06:26:10.840Z,8.64
2023-03-29T06:27:12.312Z,8.77
2023-03-29T06:28:14.520Z,8.42
2023-03-29T06:29:16.575Z,8.49
2023-03-29T06:30:19.217Z,8.56
2023-03-29T06:31:21.148Z,8.61
2023-03-29T06:32:23.330Z,8.71
2023-03-29T06:33:25.386Z,8.66
2023-03-29T06:34:27.136Z,8.75
2023-03-29T06:35:28.654Z,8.81
2023-03-29T06:36:30.888Z,8.93
2023-03-29T06:37:32.559Z,8.92
2023-03-29T06:38:34.156Z,8.84
2023-03-29T06:39:35.679Z,8.64
2023-03-29T06:40:40.197Z,8.88
2023-03-29T06:41:41.661Z,8.93
2023-03-29T06:42:43.269Z,8.65
2023-03-29T06:43:45.331Z,8.69
2023-03-29T06:44:46.992Z,8.80
2023-03-29T06:45:48.933Z,8.58
2023-03-29T06:46:50.690Z,8.66
2023-03-29T06:47:52.460Z,8.86
2023-03-29T06:48:54.046Z,8.91
2023-03-29T06:49:55.527Z,8.90
2023-03-29T06:50:57.349Z,8.69
2023-03-29T06:51:59.953Z,8.39
2023-03-29T06:53:02.237Z,8.58
2023-03-29T06:54:04.202Z,8.52
2023-03-29T06:55:07.799Z,8.55
2023-03-29T06:56:09.914Z,8.65
2023-03-29T06:57:13.274Z,8.75
2023-03-29T06:58:15.661Z,8.85
2023-03-29T06:59:18.067Z,8.87
2023-03-29T07:00:27.867Z,8.98
2023-03-29T07:01:29.617Z,8.77
2023-03-29T07:02:31.828Z,8.91
2023-03-29T07:03:35.349Z,8.69
2023-03-29T07:04:37.168Z,8.24
2023-03-29T07:05:42.423Z,8.09
2023-03-29T07:06:48.564Z,8.59
2023-03-29T07:08:08.062Z,8.71
2023-03-29T07:09:09.602Z,8.93
2023-03-29T07:10:11.330Z,9.01
2023-03-29T07:11:14.147Z,9.07
2023-03-29T07:12:15.971Z,9.15
2023-03-29T07:13:17.533Z,9.24
2023-03-29T07:14:19.030Z,8.93
2023-03-29T07:15:21.459Z,9.05
2023-03-29T07:16:23.196Z,9.15
2023-03-29T07:17:24.752Z,9.17
2023-03-29T07:18:28.889Z,9.28
2023-03-29T07:19:30.438Z,9.32
2023-03-29T07:20:33.673Z,9.34
2023-03-29T07:21:37.740Z,9.48
2023-03-29T07:22:43.482Z,9.62
2023-03-29T07:23:44.989Z,8.72
2023-03-29T07:24:46.883Z,9.07
2023-03-29T07:25:48.706Z,9.26
2023-03-29T07:27:03.405Z,9.38
2023-03-29T07:28:06.200Z,9.48
2023-03-29T07:29:07.773Z,9.09
2023-03-29T07:30:11.208Z,9.36
2023-03-29T07:31:13.698Z,9.37
2023-03-29T07:32:15.183Z,9.53
2023-03-29T07:33:16.966Z,9.65
2023-03-29T07:34:18.644Z,9.76
2023-03-29T07:35:21.108Z,9.92
2023-03-29T07:36:22.723Z,9.81
2023-03-29T07:37:24.835Z,9.85
2023-03-29T07:38:27.080Z,9.89
2023-03-29T07:39:28.557Z,9.91
2023-03-29T07:40:31.045Z,9.99
2023-03-29T07:41:32.792Z,10.03
2023-03-29T07:42:36.538Z,10.18
2023-03-29T07:43:38.095Z,10.32
2023-03-29T07:44:39.670Z,10.42
2023-03-29T07:45:42.677Z,9.60
2023-03-29T07:46:44.582Z,10.13
2023-03-29T07:47:50.021Z,10.29
2023-03-29T07:48:52.159Z,10.25
2023-03-29T07:49:53.656Z,10.14
2023-03-29T07:50:55.143Z,10.01
2023-03-29T07:51:56.711Z,10.09
2023-03-29T07:52:58.307Z,10.42
2023-03-29T07:53:59.942Z,9.72
2023-03-29T07:55:01.523Z,10.16
2023-03-29T07:56:03.161Z,10.62
2023-03-29T07:57:04.719Z,11.03
2023-03-29T07:58:06.279Z,11.48
2023-03-29T07:59:07.808Z,11.97
2023-03-29T08:00:16.049Z,12.34
2023-03-29T08:01:19.932Z,12.70
2023-03-29T08:02:21.586Z,13.13
2023-03-29T08:03:23.242Z,13.67
2023-03-29T08:04:25.193Z,14.08
2023-03-29T08:05:40.048Z,14.87
2023-03-29T08:06:42.549Z,16.26
2023-03-29T08:07:44.827Z,16.61
2023-03-29T08:08:46.448Z,16.55
2023-03-29T08:09:48.576Z,16.13
2023-03-29T08:10:50.386Z,16.24
2023-03-29T08:11:51.921Z,16.72
2023-03-29T08:12:53.820Z,17.01
2023-03-29T08:13:55.412Z,17.22
2023-03-29T08:14:57.279Z,17.60
2023-03-29T08:15:59.081Z,17.56
2023-03-29T08:17:00.895Z,16.77
2023-03-29T08:18:02.507Z,16.84
2023-03-29T08:19:04.340Z,16.12
2023-03-29T08:20:06.747Z,15.67
2023-03-29T08:21:08.323Z,15.64
2023-03-29T08:22:09.879Z,15.49
2023-03-29T08:23:11.406Z,15.37
2023-03-29T08:24:12.881Z,15.08
2023-03-29T08:25:14.490Z,15.08
2023-03-29T08:26:16.086Z,14.36
2023-03-29T08:27:17.585Z,14.57
2023-03-29T08:28:19.067Z,14.65
2023-03-29T08:29:20.636Z,15.02
2023-03-29T08:30:22.502Z,15.31
2023-03-29T08:31:24.048Z,15.28
2023-03-29T08:32:25.807Z,15.27
2023-03-29T08:33:27.679Z,15.01
2023-03-29T08:34:31.695Z,15.37
2023-03-29T08:35:33.595Z,15.72
2023-03-29T08:36:35.188Z,15.92
2023-03-29T08:37:37.347Z,16.00
2023-03-29T08:38:38.860Z,15.69
2023-03-29T08:39:40.490Z,15.34
2023-03-29T08:40:42.396Z,15.13
2023-03-29T08:42:26.556Z,15.31
2023-03-29T08:43:31.951Z,15.45
2023-03-29T08:44:51.459Z,15.49
2023-03-29T08:46:17.493Z,15.24
2023-03-29T08:47:25.866Z,14.76
2023-03-29T08:48:29.909Z,14.79
2023-03-29T08:49:31.780Z,14.80
2023-03-29T08:50:38.604Z,14.78
2023-03-29T08:51:42.677Z,14.81
2023-03-29T08:52:50.037Z,14.69
2023-03-29T08:54:05.569Z,14.47
2023-03-29T08:55:29.901Z,14.55
2023-03-29T08:56:34.218Z,14.57
2023-03-29T08:57:41.642Z,14.68
2023-03-29T08:58:43.193Z,14.84
2023-03-29T08:59:44.639Z,14.38
2023-03-29T09:00:48.867Z,13.96
2023-03-29T09:01:51.827Z,14.02
2023-03-29T09:02:54.420Z,14.14
2023-03-29T09:04:07.123Z,14.18
2023-03-29T09:05:22.592Z,14.26
2023-03-29T09:06:24.143Z,14.35
2023-03-29T09:07:26.722Z,14.39
2023-03-29T09:08:28.536Z,14.51
2023-03-29T09:09:32.911Z,14.59
2023-03-29T09:10:42.833Z,14.67
2023-03-29T09:11:56.559Z,14.74
2023-03-29T09:13:20.861Z,14.84
2023-03-29T09:14:47.679Z,14.97
2023-03-29T09:16:27.183Z,14.67
2023-03-29T09:17:39.281Z,13.46
2023-03-29T09:19:03.099Z,13.60
2023-03-29T09:20:22.828Z,13.85
2023-03-29T09:21:24.486Z,14.22
2023-03-29T09:22:51.752Z,14.54
2023-03-29T09:24:30.729Z,14.88
2023-03-29T09:25:53.474Z,14.81
2023-03-29T09:27:19.042Z,14.80
2023-03-29T09:28:43.407Z,14.75
2023-03-29T09:29:58.589Z,14.69
2023-03-29T09:31:17.026Z,14.92
2023-03-29T09:32:47.829Z,14.95
2023-03-29T09:33:59.840Z,14.89
2023-03-29T09:35:08.028Z,14.75
2023-03-29T09:36:35.110Z,14.44
2023-03-29T09:37:38.343Z,14.48
2023-03-29T09:38:42.699Z,14.16
2023-03-29T09:39:45.143Z,14.21
2023-03-29T09:40:50.141Z,13.83
2023-03-29T09:41:54.716Z,13.91
2023-03-29T09:42:56.266Z,14.05
2023-03-29T09:43:58.664Z,13.68
2023-03-29T09:45:08.322Z,13.69
2023-03-29T09:46:16.231Z,14.05
2023-03-29T09:47:21.450Z,14.38
2023-03-29T09:48:22.977Z,14.40
2023-03-29T09:49:31.183Z,14.28
2023-03-29T09:50:37.827Z,14.01
2023-03-29T09:51:39.310Z,14.36
2023-03-29T09:52:40.831Z,14.34
2023-03-29T09:53:42.381Z,14.19
2023-03-29T09:54:44.000Z,14.30
2023-03-29T09:55:48.356Z,13.80
2023-03-29T09:56:52.585Z,13.97
2023-03-29T09:57:54.171Z,14.32
2023-03-29T09:58:55.828Z,14.19
2023-03-29T09:59:57.394Z,13.98
2023-03-29T10:01:00.646Z,14.07
2023-03-29T10:02:09.623Z,14.28
2023-03-29T10:03:21.154Z,14.26
2023-03-29T10:04:22.843Z,14.49
2023-03-29T10:05:25.348Z,14.53
2023-03-29T10:06:26.937Z,14.61
2023-03-29T10:07:40.323Z,14.62
2023-03-29T10:08:44.197Z,14.52
2023-03-29T10:09:45.719Z,13.90
2023-03-29T10:10:47.569Z,14.15
2023-03-29T10:11:53.966Z,14.37
2023-03-29T10:12:59.547Z,14.30
2023-03-29T10:14:03.682Z,14.16
2023-03-29T10:15:06.497Z,13.99
2023-03-29T10:16:18.447Z,14.16
2023-03-29T10:17:21.837Z,14.21
2023-03-29T10:18:23.942Z,14.43
2023-03-29T10:19:34.666Z,14.33
2023-03-29T10:20:36.849Z,14.49
2023-03-29T10:21:38.382Z,14.52
2023-03-29T10:22:41.584Z,14.60
2023-03-29T10:23:43.825Z,14.11
2023-03-29T10:24:52.687Z,14.15
2023-03-29T10:25:54.533Z,14.30
2023-03-29T10:27:01.601Z,14.19
2023-03-29T10:28:13.579Z,14.11
2023-03-29T10:29:15.141Z,14.39
2023-03-29T10:30:23.888Z,14.54
2023-03-29T10:31:26.073Z,14.69
2023-03-29T10:32:33.480Z,14.73
2023-03-29T10:33:35.302Z,14.93
2023-03-29T10:34:37.036Z,15.01
2023-03-29T10:35:41.489Z,14.87
2023-03-29T10:36:45.246Z,14.86
2023-03-29T10:37:49.945Z,14.89
2023-03-29T10:38:52.258Z,14.98
2023-03-29T10:39:54.054Z,15.00
2023-03-29T10:41:03.348Z,15.04
2023-03-29T10:42:04.973Z,15.12
2023-03-29T10:43:32.761Z,15.25
2023-03-29T10:44:37.399Z,15.34
2023-03-29T10:45:39.250Z,15.37
2023-03-29T10:46:42.544Z,15.41
2023-03-29T10:47:44.931Z,15.32
2023-03-29T10:48:48.086Z,15.02
2023-03-29T10:49:57.291Z,15.12
2023-03-29T10:51:00.941Z,14.48
2023-03-29T10:52:02.652Z,14.76
2023-03-29T10:53:09.691Z,14.85
2023-03-29T10:54:13.677Z,15.01
2023-03-29T10:55:15.257Z,15.20
2023-03-29T10:56:40.017Z,14.79
2023-03-29T10:57:51.412Z,14.68
2023-03-29T10:59:21.647Z,14.87
2023-03-29T11:00:27.054Z,14.83
2023-03-29T11:01:52.499Z,14.94
2023-03-29T11:03:20.232Z,15.24
2023-03-29T11:04:39.705Z,15.32
2023-03-29T11:05:47.177Z,15.36
2023-03-29T11:07:16.572Z,15.37
2023-03-29T11:08:23.538Z,15.43
2023-03-29T11:09:52.786Z,15.44
2023-03-29T11:11:04.024Z,15.48
2023-03-29T11:12:16.952Z,15.47
2023-03-29T11:13:32.074Z,15.50
2023-03-29T11:14:50.561Z,15.65
2023-03-29T11:16:09.900Z,15.67
2023-03-29T11:17:18.597Z,15.62
2023-03-29T11:18:52.011Z,15.84
2023-03-29T11:20:12.609Z,15.94
2023-03-29T11:21:26.686Z,16.04
2023-03-29T11:22:42.419Z,16.01
2023-03-29T11:24:13.903Z,15.75
2023-03-29T11:25:30.014Z,15.64
2023-03-29T11:26:41.932Z,15.79
2023-03-29T11:28:22.454Z,15.58
2023-03-29T11:29:31.497Z,15.62
2023-03-29T11:30:40.180Z,15.49
2023-03-29T11:31:48.167Z,15.63
2023-03-29T11:33:11.229Z,15.62
2023-03-29T11:34:16.087Z,15.61
2023-03-29T11:35:43.766Z,15.11
2023-03-29T11:36:52.732Z,15.42
2023-03-29T11:38:39.423Z,15.53
2023-03-29T11:40:16.063Z,15.60
2023-03-29T11:41:46.832Z,15.09
2023-03-29T11:42:48.692Z,15.33
2023-03-29T11:43:55.165Z,15.49
2023-03-29T11:44:58.026Z,15.62
2023-03-29T11:46:08.156Z,15.71
2023-03-29T11:47:15.033Z,15.74
2023-03-29T11:48:22.438Z,15.63
2023-03-29T11:49:29.425Z,15.74
2023-03-29T11:50:48.529Z,15.49
2023-03-29T11:52:11.627Z,15.85
2023-03-29T11:53:20.971Z,16.11
2023-03-29T11:54:31.173Z,16.12
2023-03-29T11:55:34.604Z,16.07
2023-03-29T11:56:49.071Z,15.75
2023-03-29T11:57:54.059Z,15.82
2023-03-29T11:58:59.517Z,15.61
2023-03-29T12:00:05.497Z,15.54
2023-03-29T12:01:10.332Z,15.39
2023-03-29T12:02:31.743Z,15.71
2023-03-29T12:03:44.744Z,15.99
2023-03-29T12:04:52.645Z,16.16
2023-03-29T12:06:04.489Z,16.23
2023-03-29T12:07:23.079Z,16.32
2023-03-29T12:08:46.157Z,16.48
2023-03-29T12:09:51.484Z,16.52
2023-03-29T12:11:00.591Z,16.40
2023-03-29T12:12:11.170Z,15.77
2023-03-29T12:13:19.250Z,15.74
2023-03-29T12:14:26.667Z,16.18
2023-03-29T12:15:42.342Z,16.21
2023-03-29T12:17:03.379Z,15.96
2023-03-29T12:18:13.603Z,16.04
2023-03-29T12:19:19.063Z,15.96
2023-03-29T12:20:27.131Z,16.09
2023-03-29T12:21:28.937Z,15.74
2023-03-29T12:22:30.635Z,15.85
2023-03-29T12:23:32.323Z,16.02
2023-03-29T12:24:34.155Z,16.15
2023-03-29T12:25:44.760Z,15.97
2023-03-29T12:27:09.116Z,15.27
2023-03-29T12:28:49.542Z,15.74
2023-03-29T12:30:18.912Z,16.12
2023-03-29T12:31:20.875Z,16.10
2023-03-29T12:33:03.981Z,16.05
2023-03-29T12:34:15.730Z,16.02
2023-03-29T12:35:43.254Z,15.80
2023-03-29T12:36:52.134Z,15.88
2023-03-29T12:38:08.396Z,16.16
2023-03-29T12:39:16.859Z,16.35
2023-03-29T12:40:20.146Z,16.45
2023-03-29T12:41:22.214Z,16.38
2023-03-29T12:42:23.855Z,16.41
2023-03-29T12:43:31.802Z,16.21
2023-03-29T12:44:33.668Z,16.24
2023-03-29T12:45:39.151Z,16.32
2023-03-29T12:46:41.127Z,16.33
2023-03-29T12:47:44.013Z,16.27
2023-03-29T12:48:57.242Z,15.99
2023-03-29T12:49:59.410Z,16.24
2023-03-29T12:51:02.205Z,16.17
2023-03-29T12:52:22.193Z,16.05
2023-03-29T12:53:27.400Z,16.13
2023-03-29T12:54:31.502Z,16.12
2023-03-29T12:55:43.689Z,16.22
2023-03-29T12:57:01.419Z,16.29
2023-03-29T12:58:05.639Z,16.36
2023-03-29T12:59:35.741Z,16.51
2023-03-29T13:00:37.217Z,16.08
2023-03-29T13:01:41.342Z,16.15
2023-03-29T13:02:45.702Z,16.17
2023-03-29T13:03:48.890Z,16.25
2023-03-29T13:04:56.768Z,15.70
2023-03-29T13:06:03.696Z,15.78
2023-03-29T13:07:07.014Z,15.84
2023-03-29T13:08:23.439Z,15.86
2023-03-29T13:09:29.893Z,16.12
2023-03-29T13:10:41.430Z,16.27
2023-03-29T13:11:42.935Z,16.49
2023-03-29T13:12:46.036Z,16.35
2023-03-29T13:13:48.128Z,16.15
2023-03-29T13:14:54.653Z,16.27
2023-03-29T13:15:56.291Z,16.57
2023-03-29T13:17:15.623Z,16.62
2023-03-29T13:18:33.947Z,16.46
2023-03-29T13:20:05.275Z,16.45
2023-03-29T13:21:28.508Z,15.92
2023-03-29T13:22:41.317Z,16.28
2023-03-29T13:23:54.814Z,16.41
2023-03-29T13:25:01.805Z,16.52
2023-03-29T13:26:23.891Z,16.70
2023-03-29T13:27:43.078Z,16.47
2023-03-29T13:29:10.753Z,16.55
2023-03-29T13:30:25.648Z,16.74
2023-03-29T13:31:32.900Z,16.72
2023-03-29T13:32:59.177Z,16.65
2023-03-29T13:34:20.335Z,16.42
2023-03-29T13:35:59.853Z,16.55
2023-03-29T13:37:23.354Z,16.77
2023-03-29T13:38:32.090Z,16.82
2023-03-29T13:39:36.900Z,16.83
2023-03-29T13:40:44.167Z,16.84
2023-03-29T13:41:48.415Z,16.78
2023-03-29T13:43:19.140Z,16.58
2023-03-29T13:44:27.238Z,16.39
2023-03-29T13:45:30.459Z,16.48
2023-03-29T13:46:41.861Z,16.39
2023-03-29T13:47:54.896Z,16.44
2023-03-29T13:49:06.856Z,16.66
2023-03-29T13:50:18.783Z,16.69
2023-03-29T13:51:27.212Z,16.67
2023-03-29T13:52:36.650Z,16.72
2023-03-29T13:54:00.660Z,16.59
2023-03-29T13:55:26.174Z,16.61
2023-03-29T13:57:01.468Z,16.69
2023-03-29T13:58:18.551Z,16.80
2023-03-29T13:59:20.789Z,16.44
2023-03-29T14:00:23.922Z,16.47
2023-03-29T14:01:26.252Z,16.58
2023-03-29T14:02:33.683Z,16.49
2023-03-29T14:03:44.658Z,16.60
2023-03-29T14:04:46.779Z,16.78
2023-03-29T14:05:49.783Z,16.80
2023-03-29T14:06:55.699Z,16.78
2023-03-29T14:07:57.307Z,16.66
2023-03-29T14:09:02.360Z,16.57
2023-03-29T14:10:04.478Z,16.66
2023-03-29T14:11:06.999Z,16.78
2023-03-29T14:12:11.084Z,16.75
2023-03-29T14:13:13.643Z,16.86
2023-03-29T14:14:15.170Z,16.94
2023-03-29T14:15:23.138Z,16.85
2023-03-29T14:16:43.054Z,16.82
2023-03-29T14:17:44.667Z,16.82
2023-03-29T14:18:51.025Z,16.63
2023-03-29T14:19:53.480Z,16.75
2023-03-29T14:20:55.493Z,16.75
2023-03-29T14:21:57.174Z,16.84
2023-03-29T14:22:58.788Z,16.81
2023-03-29T14:24:01.598Z,16.64
2023-03-29T14:25:07.323Z,16.53
2023-03-29T14:26:13.271Z,16.69
2023-03-29T14:27:15.975Z,16.75
2023-03-29T14:28:28.122Z,16.77